Time;durP1;ratioP1;P1;durP2;ratioP2;P2;SDS_P1;SDS_P2;PMS_P1;PMS_P2;Temp;Humidity;BMP_temperature;BMP_pressure;BME280_temperature;BME280_humidity;BME280_pressure;Samples;Min_cycle;Max_cycle;Signal;HPM_P1;HPM_P2
2021/11/17 02:28:07;;;;;;;81.00;32.22;;;6.00;99.90;;;;;;5100837;28;20057;-70
2021/11/17 02:30:49;;;;;;;82.70;30.50;;;6.00;99.90;;;;;;5115472;28;20050;-70
2021/11/17 02:33:26;;;;;;;71.53;28.90;;;6.00;99.90;;;;;;5116924;27;20093;-70
2021/11/17 02:36:04;;;;;;;80.50;31.23;;;6.00;99.90;;;;;;5115368;28;20047;-70
2021/11/17 02:38:45;;;;;;;79.75;31.45;;;6.00;99.90;;;;;;5115346;28;20100;-70
2021/11/17 02:41:26;;;;;;;73.25;31.08;;;6.00;99.90;;;;;;5115318;28;20047;-70
2021/11/17 02:44:02;;;;;;;73.80;30.23;;;6.10;99.90;;;;;;5117042;28;20376;-70
2021/11/17 02:46:57;;;;;;;72.13;27.38;;;6.10;99.90;;;;;;5117109;27;20036;-70
2021/11/17 02:49:57;;;;;;;83.28;30.83;;;6.10;99.90;;;;;;5116135;28;20046;-70
2021/11/17 02:52:32;;;;;;;70.63;30.73;;;6.10;99.90;;;;;;5116437;28;20046;-70
2021/11/17 02:55:25;;;;;;;68.93;29.55;;;6.10;99.90;;;;;;5115048;28;20039;-70
2021/11/17 02:58:09;;;;;;;74.72;29.52;;;6.10;99.90;;;;;;5115018;28;20040;-70
2021/11/17 03:00:38;;;;;;;;;;;6.10;99.90;;;;;;5114979;28;20056;-70
2021/11/17 03:03:18;;;;;;;63.15;26.45;;;6.10;99.90;;;;;;5114848;28;19998;-70
2021/11/17 03:05:50;;;;;;;67.82;29.27;;;6.10;99.90;;;;;;5116371;28;20035;-70
2021/11/17 03:08:38;;;;;;;76.82;27.30;;;6.10;99.90;;;;;;5114882;28;20044;-70
2021/11/17 03:11:33;;;;;;;61.85;26.30;;;6.20;99.90;;;;;;5084996;28;20044;-70
2021/11/17 03:14:17;;;;;;;67.72;27.80;;;6.20;99.90;;;;;;5106275;28;20048;-70
2021/11/17 03:16:53;;;;;;;79.00;30.35;;;6.20;99.90;;;;;;5116097;28;20043;-70
2021/11/17 03:19:51;;;;;;;64.32;27.23;;;6.20;99.90;;;;;;5115735;28;20177;-70
2021/11/17 03:22:23;;;;;;;65.07;27.77;;;6.20;99.90;;;;;;5114594;28;20077;-70
2021/11/17 03:25:02;;;;;;;73.05;30.98;;;6.20;99.90;;;;;;5115978;28;20039;-70
2021/11/17 03:27:43;;;;;;;69.13;27.80;;;6.30;99.90;;;;;;5115948;28;20081;-70
2021/11/17 03:30:21;;;;;;;67.65;27.40;;;6.30;99.90;;;;;;5115901;28;20116;-70
2021/11/17 03:33:28;;;;;;;64.72;26.15;;;6.30;99.90;;;;;;5114549;28;20043;-70
2021/11/17 03:36:32;;;;;;;71.22;29.38;;;6.30;99.90;;;;;;5115678;28;20046;-70
2021/11/17 03:39:24;;;;;;;70.78;28.20;;;6.30;99.90;;;;;;5115337;28;20044;-70
2021/11/17 03:42:33;;;;;;;68.38;27.05;;;6.30;99.90;;;;;;5114609;28;20456;-70
2021/11/17 03:45:18;;;;;;;66.10;27.95;;;6.30;99.90;;;;;;5114325;28;20042;-70
2021/11/17 03:48:03;;;;;;;63.33;27.92;;;6.30;99.90;;;;;;5080624;28;20043;-70
2021/11/17 03:51:00;;;;;;;70.35;28.23;;;6.30;99.90;;;;;;5098815;28;20119;-70
2021/11/17 03:53:37;;;;;;;68.88;27.38;;;6.40;99.90;;;;;;5115238;28;20096;-70
2021/11/17 03:56:16;;;;;;;69.40;28.13;;;6.40;99.90;;;;;;5113928;28;20118;-70
2021/11/17 03:59:27;;;;;;;73.07;28.30;;;6.40;99.90;;;;;;5113728;28;20046;-70
2021/11/17 04:02:11;;;;;;;65.63;28.58;;;6.40;99.90;;;;;;5110556;28;20122;-70
2021/11/17 04:04:59;;;;;;;70.20;28.13;;;6.40;99.90;;;;;;5113792;28;20047;-70
2021/11/17 04:07:31;;;;;;;65.20;27.45;;;6.40;99.90;;;;;;5115112;28;20036;-70
2021/11/17 04:10:21;;;;;;;80.75;30.60;;;6.40;99.90;;;;;;5113329;28;20518;-70
2021/11/17 04:13:14;;;;;;;83.03;31.10;;;6.40;99.90;;;;;;5113481;28;20048;-70
2021/11/17 04:15:40;;;;;;;76.75;27.90;;;6.50;99.90;;;;;;5113526;28;20073;-70
2021/11/17 04:18:27;;;;;;;66.40;27.00;;;6.40;99.90;;;;;;5113594;28;20039;-70
2021/11/17 04:21:04;;;;;;;79.45;30.73;;;6.50;99.90;;;;;;5113308;28;20047;-70
2021/11/17 04:23:57;;;;;;;72.28;29.00;;;6.50;99.90;;;;;;5113305;28;20047;-70
2021/11/17 04:26:32;;;;;;;74.88;27.77;;;6.50;99.90;;;;;;5113775;28;20088;-70
2021/11/17 04:29:13;;;;;;;78.80;30.67;;;6.50;99.90;;;;;;5113137;28;20054;-70
2021/11/17 04:32:00;;;;;;;79.25;30.85;;;6.50;99.90;;;;;;5113106;28;20055;-70
2021/11/17 04:34:46;;;;;;;75.43;30.90;;;6.60;99.90;;;;;;5113758;28;20051;-70
2021/11/17 04:37:17;;;;;;;79.15;30.42;;;6.60;99.90;;;;;;5113541;28;20385;-70
2021/11/17 04:40:01;;;;;;;83.43;33.03;;;6.60;99.90;;;;;;5112971;28;20093;-70
2021/11/17 04:42:53;;;;;;;87.55;32.38;;;6.60;99.90;;;;;;5114329;28;20126;-70
2021/11/17 04:45:19;;;;;;;86.45;32.10;;;6.60;99.90;;;;;;5114515;28;20551;-70
2021/11/17 04:48:05;;;;;;;79.25;29.55;;;6.60;99.90;;;;;;5114183;28;20036;-70
2021/11/17 04:50:44;;;;;;;74.45;30.17;;;6.60;99.90;;;;;;5112171;28;20077;-70
2021/11/17 04:53:41;;;;;;;73.93;27.90;;;6.60;99.90;;;;;;5095837;28;20043;-70
2021/11/17 04:56:06;;;;;;;88.47;33.10;;;6.60;99.90;;;;;;5112669;28;20126;-70
2021/11/17 04:58:57;;;;;;;87.13;33.67;;;6.60;99.90;;;;;;5113840;28;20139;-70
2021/11/17 05:01:35;;;;;;;75.20;29.60;;;6.60;99.90;;;;;;5112910;28;20039;-68
2021/11/17 05:04:10;;;;;;;78.97;29.05;;;6.60;99.90;;;;;;5113949;28;20043;-69
2021/11/17 05:06:52;;;;;;;70.38;28.10;;;6.60;99.90;;;;;;5113813;28;20043;-69
2021/11/17 05:09:41;;;;;;;82.00;29.67;;;6.70;99.90;;;;;;5112733;28;20070;-69
2021/11/17 05:12:31;;;;;;;62.05;27.60;;;6.70;99.90;;;;;;5114365;28;20071;-69
2021/11/17 05:15:11;;;;;;;84.75;29.88;;;6.70;99.90;;;;;;5113421;28;20112;-69
2021/11/17 05:17:40;;;;;;;74.10;27.40;;;6.70;99.90;;;;;;5112829;28;20100;-69
2021/11/17 05:20:18;;;;;;;76.40;30.42;;;6.70;99.90;;;;;;5112498;28;20090;-69
2021/11/17 05:22:49;;;;;;;78.35;30.17;;;6.70;99.90;;;;;;5113934;28;20035;-69
2021/11/17 05:25:42;;;;;;;84.80;31.73;;;6.70;99.90;;;;;;5114147;28;20082;-69
2021/11/17 05:28:44;;;;;;;81.40;31.65;;;6.70;99.90;;;;;;5112418;28;20043;-69
2021/11/17 05:31:37;;;;;;;88.35;32.47;;;6.70;99.90;;;;;;5111310;28;20048;-69
2021/11/17 05:34:25;;;;;;;89.65;34.15;;;6.70;99.90;;;;;;5112496;28;20032;-69
2021/11/17 05:36:51;;;;;;;84.57;33.25;;;6.70;99.90;;;;;;5112682;28;20035;-69
2021/11/17 05:39:19;;;;;;;104.25;37.20;;;6.80;99.90;;;;;;5112231;28;20074;-69
2021/11/17 05:42:04;;;;;;;102.13;34.65;;;6.80;99.90;;;;;;5112716;28;20044;-69
2021/11/17 05:44:49;;;;;;;84.13;33.78;;;6.80;99.90;;;;;;5112187;28;20480;-69
2021/11/17 05:47:33;;;;;;;94.90;36.58;;;6.80;99.90;;;;;;5112357;28;20039;-69
2021/11/17 05:50:18;;;;;;;86.93;35.15;;;6.80;99.90;;;;;;5113116;28;20499;-69
2021/11/17 05:53:26;;;;;;;93.15;37.28;;;6.90;99.90;;;;;;5113651;28;20114;-69
2021/11/17 05:56:19;;;;;;;88.47;34.28;;;6.90;99.90;;;;;;5082518;28;20055;-69
2021/11/17 05:58:59;;;;;;;95.28;36.65;;;6.90;99.90;;;;;;5112028;28;20118;-69
2021/11/17 06:01:37;;;;;;;101.80;38.10;;;6.90;99.90;;;;;;5114967;28;20035;-69
2021/11/17 06:04:04;;;;;;;99.13;38.90;;;6.90;99.90;;;;;;5116044;28;20047;-69
2021/11/17 06:06:36;;;;;;;102.85;39.30;;;6.90;99.90;;;;;;5099520;28;20055;-69
2021/11/17 06:09:01;;;;;;;116.32;42.65;;;6.90;99.90;;;;;;5116909;28;20047;-69
2021/11/17 06:11:33;;;;;;;97.88;39.13;;;6.90;99.90;;;;;;5118077;28;20506;-69
2021/11/17 06:14:01;;;;;;;96.78;41.92;;;7.00;99.90;;;;;;5117235;27;20379;-69
2021/11/17 06:16:29;;;;;;;111.50;41.63;;;7.00;99.90;;;;;;5117920;28;20031;-69
2021/11/17 06:18:55;;;;;;;103.82;41.85;;;7.00;99.90;;;;;;5115818;28;20047;-69
2021/11/17 06:21:22;;;;;;;112.65;43.92;;;7.00;99.90;;;;;;5116997;28;20036;-69
2021/11/17 06:23:52;;;;;;;125.82;45.28;;;7.00;99.90;;;;;;5115940;28;20043;-69
2021/11/17 06:26:22;;;;;;;115.63;43.17;;;7.10;99.90;;;;;;5117233;28;20028;-69
2021/11/17 06:28:54;;;;;;;110.93;43.83;;;7.10;99.90;;;;;;5115370;28;20047;-69
2021/11/17 06:31:21;;;;;;;126.00;45.75;;;7.00;99.90;;;;;;5116968;28;20039;-69
2021/11/17 06:33:46;;;;;;;132.52;46.03;;;7.00;99.90;;;;;;5116564;28;20071;-69
2021/11/17 06:36:12;;;;;;;123.72;46.47;;;7.10;99.90;;;;;;5116657;28;20455;-69
2021/11/17 06:38:38;;;;;;;129.30;47.42;;;7.10;99.90;;;;;;5114921;28;20047;-69
2021/11/17 06:41:04;;;;;;;148.07;47.67;;;7.20;99.90;;;;;;5116526;28;20031;-69
2021/11/17 06:43:30;;;;;;;130.13;46.88;;;7.20;99.90;;;;;;5116527;28;20110;-69
2021/11/17 06:45:58;;;;;;;127.30;49.25;;;7.20;99.90;;;;;;5116810;28;20467;-69
2021/11/17 06:48:29;;;;;;;144.32;48.45;;;7.20;99.90;;;;;;5116697;28;20446;-69
2021/11/17 06:50:56;;;;;;;141.60;48.70;;;7.20;99.90;;;;;;5116741;28;20047;-69
2021/11/17 06:53:23;;;;;;;137.95;50.10;;;7.20;99.90;;;;;;5116302;28;20047;-69
2021/11/17 06:55:48;;;;;;;136.68;50.67;;;7.20;99.90;;;;;;5116147;28;20121;-69
2021/11/17 06:58:14;;;;;;;135.20;48.10;;;7.20;99.90;;;;;;5116470;28;20392;-69
2021/11/17 07:00:43;;;;;;;133.35;47.35;;;7.20;99.90;;;;;;5116389;28;20031;-69
2021/11/17 07:03:10;;;;;;;139.63;50.50;;;7.20;99.90;;;;;;5115049;28;20032;-68
2021/11/17 07:05:35;;;;;;;144.38;52.70;;;7.30;99.90;;;;;;5116083;28;20522;-69
2021/11/17 07:08:01;;;;;;;138.68;50.72;;;7.30;99.90;;;;;;5116321;28;20147;-68
2021/11/17 07:10:28;;;;;;;129.77;49.72;;;7.30;99.90;;;;;;5097509;28;20039;-69
2021/11/17 07:12:55;;;;;;;145.23;52.28;;;7.40;99.90;;;;;;5116233;28;20428;-68
2021/11/17 07:15:22;;;;;;;136.45;52.83;;;7.30;99.90;;;;;;5115484;28;20047;-69
2021/11/17 07:17:48;;;;;;;135.25;50.38;;;7.40;99.90;;;;;;5114407;28;20055;-69
2021/11/17 07:20:14;;;;;;;143.13;51.05;;;7.40;99.90;;;;;;5115363;28;20032;-68
2021/11/17 07:22:41;;;;;;;141.45;50.53;;;7.40;99.90;;;;;;5114575;28;20031;-68
2021/11/17 07:25:09;;;;;;;146.60;52.45;;;7.40;99.90;;;;;;5116324;28;20046;-69
2021/11/17 07:27:36;;;;;;;144.98;54.97;;;7.50;99.90;;;;;;5115722;28;20055;-68
2021/11/17 07:30:06;;;;;;;156.95;52.20;;;7.50;99.90;;;;;;5115410;28;20043;-68
2021/11/17 07:32:32;;;;;;;150.25;53.97;;;7.50;99.90;;;;;;5114728;28;20116;-68
2021/11/17 07:34:58;;;;;;;150.50;53.65;;;7.50;99.90;;;;;;5114250;28;20131;-68
2021/11/17 07:37:24;;;;;;;142.88;54.75;;;7.50;99.90;;;;;;5115775;28;20043;-68
2021/11/17 07:39:50;;;;;;;140.00;53.97;;;7.50;99.90;;;;;;5115428;28;20044;-68
2021/11/17 07:42:16;;;;;;;155.57;56.75;;;7.60;99.90;;;;;;5114321;28;20044;-68
2021/11/17 07:44:43;;;;;;;142.65;52.75;;;7.60;99.90;;;;;;5115391;28;20071;-68
2021/11/17 07:47:09;;;;;;;131.65;52.03;;;7.70;99.90;;;;;;5115639;28;20081;-68
2021/11/17 07:49:35;;;;;;;142.93;55.15;;;7.60;99.90;;;;;;5114819;27;20086;-68
2021/11/17 07:52:00;;;;;;;149.43;54.53;;;7.60;99.90;;;;;;5115209;28;20071;-69
2021/11/17 07:54:29;;;;;;;147.43;50.95;;;7.70;99.90;;;;;;5115522;28;20156;-68
2021/11/17 07:56:56;;;;;;;141.73;53.97;;;7.70;99.90;;;;;;5115101;28;20039;-69
2021/11/17 07:59:24;;;;;;;144.35;53.90;;;7.70;99.90;;;;;;5115078;28;20480;-68
2021/11/17 08:01:55;;;;;;;159.93;54.80;;;7.70;99.90;;;;;;5113750;28;20517;-69
2021/11/17 08:04:23;;;;;;;146.60;52.80;;;7.70;99.90;;;;;;5115653;28;20043;-69
2021/11/17 08:06:51;;;;;;;143.50;52.60;;;7.70;99.90;;;;;;5115375;28;20031;-69
2021/11/17 08:09:17;;;;;;;138.32;52.35;;;7.70;99.90;;;;;;5114590;28;20494;-69
2021/11/17 08:11:43;;;;;;;152.35;52.92;;;7.70;99.90;;;;;;5115432;28;20400;-69
2021/11/17 08:14:09;;;;;;;137.75;51.92;;;7.70;99.90;;;;;;5115581;28;20109;-68
2021/11/17 08:16:36;;;;;;;146.50;52.50;;;7.70;99.90;;;;;;5113607;28;20036;-69
2021/11/17 08:19:02;;;;;;;148.98;52.08;;;7.80;99.90;;;;;;5113198;28;20036;-70
2021/11/17 08:21:27;;;;;;;136.95;53.20;;;7.80;99.90;;;;;;5113307;28;20039;-70
2021/11/17 08:23:53;;;;;;;151.45;55.47;;;7.90;99.90;;;;;;5112918;28;20044;-70
2021/11/17 08:26:22;;;;;;;139.80;52.22;;;7.90;99.90;;;;;;5114503;28;20036;-70
2021/11/17 08:28:48;;;;;;;168.57;60.58;;;7.90;99.90;;;;;;5113135;28;20046;-70
2021/11/17 08:31:14;;;;;;;148.02;57.25;;;7.90;99.90;;;;;;5097580;28;20086;-70
2021/11/17 08:33:45;;;;;;;137.18;54.08;;;8.00;99.90;;;;;;5094006;28;20036;-66
2021/11/17 08:36:12;;;;;;;142.25;51.38;;;8.10;99.90;;;;;;5094162;28;20032;-66
2021/11/17 08:38:38;;;;;;;139.40;50.33;;;8.10;99.90;;;;;;5093753;28;20077;-66
2021/11/17 08:41:07;;;;;;;132.75;49.65;;;8.10;99.90;;;;;;5093905;28;20038;-66
2021/11/17 08:43:33;;;;;;;123.32;48.83;;;8.10;99.90;;;;;;5092791;28;20036;-66
2021/11/17 08:46:00;;;;;;;123.15;47.30;;;8.20;99.90;;;;;;5094129;28;20035;-67
2021/11/17 08:48:29;;;;;;;118.97;44.55;;;8.20;99.90;;;;;;5093898;28;20028;-66
2021/11/17 08:50:57;;;;;;;111.00;45.38;;;8.20;99.90;;;;;;5093762;28;20040;-67
2021/11/17 08:53:25;;;;;;;115.35;45.72;;;8.20;99.90;;;;;;5093668;28;20059;-66
2021/11/17 08:55:51;;;;;;;122.32;47.15;;;8.30;99.90;;;;;;5094128;28;20029;-66
2021/11/17 08:58:18;;;;;;;121.15;48.28;;;8.30;99.90;;;;;;5093690;28;20038;-67
2021/11/17 09:00:46;;;;;;;115.50;45.95;;;8.30;99.90;;;;;;5093407;28;20040;-66
2021/11/17 09:03:12;;;;;;;108.72;45.67;;;8.40;99.90;;;;;;5093999;28;20040;-66
2021/11/17 09:05:42;;;;;;;112.38;45.72;;;8.40;99.90;;;;;;5093813;28;20074;-66
2021/11/17 09:08:09;;;;;;;120.95;44.65;;;8.40;99.90;;;;;;5093749;28;20036;-67
2021/11/17 09:10:40;;;;;;;104.32;45.05;;;8.40;99.90;;;;;;5093120;28;20047;-67
2021/11/17 09:13:07;;;;;;;100.05;42.20;;;8.50;99.90;;;;;;5075379;28;20051;-67
2021/11/17 09:15:37;;;;;;;107.65;44.15;;;8.50;99.90;;;;;;5093419;28;20480;-67
2021/11/17 09:18:04;;;;;;;116.05;44.08;;;8.50;99.90;;;;;;5092397;28;20488;-67
2021/11/17 09:20:30;;;;;;;101.72;42.50;;;8.50;99.90;;;;;;5091931;28;20036;-67
2021/11/17 09:22:56;;;;;;;112.22;43.97;;;8.50;99.90;;;;;;5092006;28;20142;-67
2021/11/17 09:25:24;;;;;;;117.25;44.70;;;8.50;99.90;;;;;;5092077;28;20036;-67
2021/11/17 09:27:50;;;;;;;122.95;45.10;;;8.50;99.90;;;;;;5093398;28;20028;-67
2021/11/17 09:30:20;;;;;;;111.75;43.13;;;8.60;99.90;;;;;;5093475;28;20066;-67
2021/11/17 09:32:48;;;;;;;105.88;42.42;;;8.60;99.90;;;;;;5092388;28;20047;-67
2021/11/17 09:35:15;;;;;;;113.40;43.17;;;8.60;99.90;;;;;;5094173;28;20055;-67
2021/11/17 09:37:43;;;;;;;119.78;44.03;;;8.60;99.90;;;;;;5098129;28;20040;-67
2021/11/17 09:40:13;;;;;;;116.78;44.72;;;8.60;99.90;;;;;;5095970;28;20040;-67
2021/11/17 09:42:39;;;;;;;114.82;44.63;;;8.60;99.90;;;;;;5097356;28;20036;-67
2021/11/17 09:45:08;;;;;;;107.22;43.78;;;8.60;99.90;;;;;;5097568;28;20438;-67
2021/11/17 09:47:36;;;;;;;114.18;43.45;;;8.70;99.90;;;;;;5097474;28;20043;-67
2021/11/17 09:50:25;;;;;;;111.07;44.15;;;8.70;99.90;;;;;;5096760;28;20077;-67
2021/11/17 09:53:11;;;;;;;108.22;41.90;;;8.70;99.90;;;;;;5096318;28;20422;-68
2021/11/17 09:55:41;;;;;;;117.32;42.90;;;8.70;99.90;;;;;;5097293;28;20051;-67
2021/11/17 09:58:11;;;;;;;110.65;44.25;;;8.70;99.90;;;;;;5097090;28;20450;-68
2021/11/17 10:00:57;;;;;;;117.30;43.20;;;8.70;99.90;;;;;;5096723;28;20470;-68
2021/11/17 10:03:48;;;;;;;104.28;41.53;;;8.80;99.90;;;;;;5079260;28;20040;-67
2021/11/17 10:07:15;;;;;;;107.90;42.55;;;8.90;99.90;;;;;;5097159;28;20036;-68
2021/11/17 10:10:06;;;;;;;110.85;39.42;;;8.80;99.90;;;;;;5095575;28;20044;-67
2021/11/17 10:12:57;;;;;;;92.90;38.35;;;8.90;99.90;;;;;;5096179;28;20048;-68
2021/11/17 10:15:27;;;;;;;102.20;38.83;;;9.00;99.90;;;;;;5095907;28;20048;-68
2021/11/17 10:18:04;;;;;;;106.30;40.75;;;9.00;99.90;;;;;;5096811;28;20059;-68
2021/11/17 10:20:39;;;;;;;99.57;37.65;;;9.00;99.90;;;;;;5096422;28;20040;-67
2021/11/17 10:23:05;;;;;;;100.53;38.17;;;9.10;99.90;;;;;;5096470;28;20051;-68
2021/11/17 10:25:40;;;;;;;89.28;33.63;;;9.20;99.90;;;;;;5097006;28;20036;-68
2021/11/17 10:28:06;;;;;;;84.78;32.28;;;9.20;99.90;;;;;;5096544;28;20051;-67
2021/11/17 10:31:00;;;;;;;84.65;31.25;;;9.20;99.90;;;;;;5094941;28;20047;-68
2021/11/17 10:33:42;;;;;;;79.47;31.85;;;9.20;99.90;;;;;;5080923;28;20152;-68
2021/11/17 10:36:32;;;;;;;72.18;29.65;;;9.20;99.90;;;;;;5096734;28;20051;-68
2021/11/17 10:39:19;;;;;;;81.10;31.83;;;9.20;99.90;;;;;;5095095;28;20443;-67
2021/11/17 10:41:59;;;;;;;81.45;29.95;;;9.20;99.90;;;;;;5096603;28;20357;-68
2021/11/17 10:44:46;;;;;;;76.07;32.00;;;9.30;99.90;;;;;;5096168;28;20543;-68
2021/11/17 10:47:16;;;;;;;72.60;30.10;;;9.40;99.90;;;;;;5095550;28;20036;-68
2021/11/17 10:49:45;;;;;;;74.35;31.15;;;9.40;99.90;;;;;;5094685;28;20412;-67
2021/11/17 10:52:12;;;;;;;67.93;31.48;;;9.50;99.90;;;;;;5096341;28;20495;-68
2021/11/17 10:54:53;;;;;;;78.28;31.92;;;9.50;99.90;;;;;;5096263;28;20481;-67
2021/11/17 10:57:22;;;;;;;79.10;29.92;;;9.60;99.90;;;;;;5094874;28;20400;-68
2021/11/17 10:59:49;;;;;;;64.95;27.13;;;9.60;99.90;;;;;;5094364;28;20074;-67
2021/11/17 11:02:16;;;;;;;69.95;29.17;;;9.60;99.90;;;;;;5095947;28;20032;-68
2021/11/17 11:04:50;;;;;;;61.60;26.25;;;9.70;99.90;;;;;;5096202;28;20036;-68
2021/11/17 11:07:29;;;;;;;67.40;26.77;;;9.70;99.90;;;;;;5095839;28;20182;-67
2021/11/17 11:10:18;;;;;;;56.83;24.55;;;9.70;99.90;;;;;;5095699;28;20528;-68
2021/11/17 11:12:46;;;;;;;56.22;24.52;;;9.70;99.90;;;;;;5096264;28;20085;-68
2021/11/17 11:15:20;;;;;;;50.28;22.13;;;9.70;99.90;;;;;;5095604;28;20036;-67
2021/11/17 11:18:06;;;;;;;48.63;19.88;;;9.70;99.90;;;;;;5094297;28;20054;-68
2021/11/17 11:20:34;;;;;;;50.30;19.70;;;9.80;99.90;;;;;;5093791;28;20048;-67
2021/11/17 11:23:05;;;;;;;46.30;19.75;;;9.80;99.90;;;;;;5094281;28;20039;-67
2021/11/17 11:25:53;;;;;;;37.35;14.43;;;9.90;99.90;;;;;;5095468;28;20051;-67
2021/11/17 11:28:21;;;;;;;38.63;14.35;;;10.00;99.90;;;;;;5095657;28;20123;-68
2021/11/17 11:31:10;;;;;;;30.70;13.05;;;10.10;99.90;;;;;;5093585;28;20169;-67
2021/11/17 11:33:48;;;;;;;33.97;13.05;;;10.20;99.90;;;;;;5094639;28;20044;-67
2021/11/17 11:36:14;;;;;;;32.45;10.30;;;10.20;99.90;;;;;;5095461;28;20186;-67
2021/11/17 11:39:11;;;;;;;31.58;9.45;;;10.30;99.90;;;;;;5093912;28;20482;-67
2021/11/17 11:42:14;;;;;;;27.80;9.40;;;10.30;99.90;;;;;;5095063;28;20040;-66
2021/11/17 11:44:50;;;;;;;24.52;7.20;;;10.30;99.90;;;;;;5093995;28;20044;-67
2021/11/17 11:47:22;;;;;;;26.80;6.20;;;10.40;99.90;;;;;;5095406;28;20122;-67
2021/11/17 11:49:52;;;;;;;23.63;7.38;;;10.40;99.90;;;;;;5093333;28;20487;-67
2021/11/17 11:52:23;;;;;;;25.50;5.03;;;10.40;99.90;;;;;;5095338;28;20422;-67
2021/11/17 11:54:53;;;;;;;20.77;4.93;;;10.50;99.90;;;;;;5094118;28;20036;-67
2021/11/17 11:57:52;;;;;;;22.58;4.10;;;10.60;99.90;;;;;;5093581;28;20051;-67
2021/11/17 12:00:23;;;;;;;23.63;3.92;;;10.60;99.90;;;;;;5093614;28;20043;-67
2021/11/17 12:03:06;;;;;;;25.75;4.72;;;10.50;99.90;;;;;;5094636;28;20047;-67
2021/11/17 12:05:32;;;;;;;23.70;3.75;;;10.60;99.90;;;;;;5094756;28;20041;-67
2021/11/17 12:08:20;;;;;;;18.65;4.18;;;10.70;99.90;;;;;;5094503;28;20111;-67
2021/11/17 12:10:49;;;;;;;19.20;3.88;;;10.70;99.90;;;;;;5092954;28;20048;-67
2021/11/17 12:13:24;;;;;;;18.08;4.30;;;10.70;99.90;;;;;;5094694;28;20046;-67
2021/11/17 12:15:58;;;;;;;27.08;5.78;;;10.70;99.90;;;;;;5094341;28;20531;-67
2021/11/17 12:18:24;;;;;;;12.88;3.53;;;10.70;99.90;;;;;;5094254;28;20036;-67
2021/11/17 12:21:07;;;;;;;18.35;3.72;;;10.70;99.90;;;;;;5094078;28;20123;-67
2021/11/17 12:23:36;;;;;;;22.38;3.28;;;10.70;99.90;;;;;;5095111;28;20042;-67
2021/11/17 12:26:22;;;;;;;14.43;2.90;;;10.60;99.90;;;;;;5094224;28;20040;-67
2021/11/17 12:28:55;;;;;;;14.07;2.63;;;10.70;99.90;;;;;;5094132;28;20119;-67
2021/11/17 12:31:25;;;;;;;14.07;2.67;;;10.70;99.90;;;;;;5093560;28;20430;-67
2021/11/17 12:34:15;;;;;;;16.60;2.75;;;10.70;99.90;;;;;;5094340;28;20488;-67
2021/11/17 12:37:00;;;;;;;11.38;3.05;;;10.70;99.90;;;;;;5094053;28;20036;-67
2021/11/17 12:39:29;;;;;;;10.15;2.67;;;10.70;99.90;;;;;;5094171;28;20040;-67
2021/11/17 12:41:59;;;;;;;14.88;4.30;;;10.70;99.90;;;;;;5094090;28;20357;-67
2021/11/17 12:44:33;;;;;;;19.05;2.78;;;10.70;99.90;;;;;;5093944;28;20046;-67
2021/11/17 12:47:20;;;;;;;14.75;2.97;;;10.70;99.90;;;;;;5093970;28;20035;-66
2021/11/17 12:49:48;;;;;;;21.02;3.70;;;10.80;99.90;;;;;;5093968;28;20438;-67
2021/11/17 12:52:26;;;;;;;16.50;3.13;;;10.80;99.90;;;;;;5093024;28;20450;-67
2021/11/17 12:55:00;;;;;;;12.40;2.70;;;10.80;99.90;;;;;;5095670;28;20385;-67
2021/11/17 12:57:34;;;;;;;15.57;3.38;;;10.90;99.90;;;;;;5093841;28;20043;-67
2021/11/17 13:00:13;;;;;;;21.42;2.70;;;10.90;99.90;;;;;;5093802;28;20047;-67
2021/11/17 13:02:57;;;;;;;12.15;2.53;;;11.00;99.90;;;;;;5092474;28;20123;-67
2021/11/17 13:05:25;;;;;;;10.85;2.85;;;10.90;99.90;;;;;;5093834;28;20149;-67
2021/11/17 13:08:00;;;;;;;9.57;2.65;;;10.90;99.90;;;;;;5092909;28;20046;-67
2021/11/17 13:10:29;;;;;;;12.32;3.45;;;10.90;99.90;;;;;;5091828;28;20077;-67
2021/11/17 13:13:27;;;;;;;15.45;2.25;;;11.00;99.90;;;;;;5093528;28;20154;-67
2021/11/17 13:16:13;;;;;;;11.05;2.67;;;10.90;99.90;;;;;;5085078;28;20496;-67
2021/11/17 13:18:44;;;;;;;12.75;2.90;;;11.00;99.90;;;;;;5092796;28;20135;-67
2021/11/17 13:21:29;;;;;;;11.63;2.30;;;10.90;99.90;;;;;;5092312;28;20044;-67
2021/11/17 13:24:03;;;;;;;16.33;2.65;;;10.80;99.90;;;;;;5094033;28;20036;-67
2021/11/17 13:26:34;;;;;;;10.15;2.30;;;10.80;99.90;;;;;;5093326;28;20040;-67
2021/11/17 13:29:23;;;;;;;11.63;2.50;;;10.80;99.90;;;;;;5093184;28;20503;-67
2021/11/17 13:31:55;;;;;;;14.68;2.78;;;10.80;99.90;;;;;;5092288;28;20124;-67
2021/11/17 13:34:35;;;;;;;15.48;1.95;;;10.80;99.00;;;;;;5093753;28;20071;-67
2021/11/17 13:37:36;;;;;;;14.82;2.70;;;10.80;98.00;;;;;;5093359;28;20040;-67
2021/11/17 13:40:19;;;;;;;12.57;2.25;;;10.80;98.40;;;;;;5092976;28;20040;-67
2021/11/17 13:42:46;;;;;;;12.38;3.10;;;10.70;99.90;;;;;;5093343;28;20036;-67
2021/11/17 13:45:27;;;;;;;5.53;2.17;;;10.70;99.90;;;;;;5093141;28;20116;-67
2021/11/17 13:47:53;;;;;;;16.30;3.10;;;10.80;99.70;;;;;;5093333;28;20040;-67
2021/11/17 13:50:23;;;;;;;9.10;2.28;;;10.70;99.90;;;;;;5091837;28;20062;-67
2021/11/17 13:52:49;;;;;;;13.50;2.83;;;10.70;99.90;;;;;;5093547;28;20040;-67
2021/11/17 13:55:22;;;;;;;10.05;2.40;;;10.60;99.90;;;;;;5093292;28;20162;-67
2021/11/17 13:57:48;;;;;;;16.23;3.30;;;10.70;99.90;;;;;;5092970;28;20039;-66
2021/11/17 14:00:16;;;;;;;12.07;2.88;;;10.60;99.90;;;;;;5091616;28;20048;-66
2021/11/17 14:02:44;;;;;;;12.85;2.75;;;10.70;99.90;;;;;;5093492;28;20107;-66
2021/11/17 14:05:10;;;;;;;10.77;2.65;;;10.70;99.90;;;;;;5093096;28;20403;-66
2021/11/17 14:07:36;;;;;;;14.07;2.53;;;10.60;99.90;;;;;;5093152;28;20033;-66
2021/11/17 14:10:04;;;;;;;12.98;2.75;;;10.60;99.90;;;;;;5092675;28;20051;-66
2021/11/17 14:12:30;;;;;;;12.52;2.35;;;10.70;99.90;;;;;;5093101;28;20492;-66
2021/11/17 14:14:56;;;;;;;14.38;2.97;;;10.70;99.90;;;;;;5091756;28;20069;-66
2021/11/17 14:17:21;;;;;;;11.13;2.65;;;10.70;99.90;;;;;;5091626;28;20040;-66
2021/11/17 14:19:47;;;;;;;8.40;2.10;;;10.70;99.90;;;;;;5091060;28;20036;-66
2021/11/17 14:22:13;;;;;;;10.82;1.92;;;10.70;99.90;;;;;;5093573;28;20040;-66
2021/11/17 14:24:38;;;;;;;10.13;2.25;;;10.70;99.90;;;;;;5095676;28;20074;-66
2021/11/17 14:27:07;;;;;;;10.55;2.05;;;10.60;99.90;;;;;;5095992;28;20123;-66
2021/11/17 14:29:58;;;;;;;9.75;1.45;;;10.60;99.30;;;;;;5095318;28;20044;-66
2021/11/17 14:32:32;;;;;;;8.27;1.75;;;10.50;99.20;;;;;;5096366;28;20039;-66
2021/11/17 14:34:59;;;;;;;14.80;3.13;;;10.50;97.60;;;;;;5096637;28;20082;-66
2021/11/17 14:37:25;;;;;;;8.85;1.40;;;10.40;98.10;;;;;;5096261;28;20563;-66
2021/11/17 14:39:51;;;;;;;9.52;1.92;;;10.30;98.40;;;;;;5094675;28;20119;-66
2021/11/17 14:42:17;;;;;;;16.45;3.03;;;10.20;99.30;;;;;;5096298;28;20123;-67
2021/11/17 14:44:44;;;;;;;10.45;1.65;;;10.20;99.20;;;;;;5096407;28;20032;-67
2021/11/17 14:47:11;;;;;;;10.55;1.38;;;10.20;99.70;;;;;;5096281;28;20040;-67
2021/11/17 14:49:38;;;;;;;17.42;2.38;;;10.10;99.80;;;;;;5094990;28;20052;-67
2021/11/17 14:52:10;;;;;;;8.25;1.52;;;10.00;99.90;;;;;;5096119;28;20040;-66
2021/11/17 14:54:36;;;;;;;11.40;1.98;;;9.90;99.90;;;;;;5096134;28;20044;-67
2021/11/17 14:57:04;;;;;;;12.23;1.92;;;9.90;99.90;;;;;;5096168;28;20040;-67
2021/11/17 14:59:29;;;;;;;7.47;1.65;;;9.90;99.90;;;;;;5095883;28;20040;-66
2021/11/17 15:01:55;;;;;;;7.22;1.58;;;9.80;99.90;;;;;;5096381;28;20415;-67
2021/11/17 15:04:21;;;;;;;8.90;1.65;;;9.80;99.90;;;;;;5094535;28;20086;-70
2021/11/17 15:06:47;;;;;;;8.80;2.13;;;9.70;99.90;;;;;;5077771;28;20071;-70
2021/11/17 15:09:14;;;;;;;10.90;1.80;;;9.70;99.90;;;;;;5094326;28;20051;-70
2021/11/17 15:11:46;;;;;;;13.65;1.67;;;9.70;99.90;;;;;;5094139;28;20135;-70
2021/11/17 15:14:12;;;;;;;10.68;1.80;;;9.60;99.90;;;;;;5094501;28;20089;-70
2021/11/17 15:16:38;;;;;;;7.88;1.77;;;9.60;99.90;;;;;;5096100;28;20032;-70
2021/11/17 15:19:04;;;;;;;9.77;2.38;;;9.50;99.90;;;;;;5095322;28;20094;-70
2021/11/17 15:21:30;;;;;;;10.13;1.60;;;9.40;99.90;;;;;;5095493;28;20032;-70
2021/11/17 15:23:55;;;;;;;6.22;1.60;;;9.40;99.90;;;;;;5094387;28;20040;-70
2021/11/17 15:26:21;;;;;;;10.05;2.10;;;9.30;99.90;;;;;;5095595;28;20079;-70
2021/11/17 15:28:53;;;;;;;11.80;2.08;;;9.20;99.90;;;;;;5095095;28;20044;-70
2021/11/17 15:31:25;;;;;;;8.18;1.77;;;9.10;99.90;;;;;;5094096;28;20051;-70
2021/11/17 15:33:52;;;;;;;5.95;1.70;;;9.00;99.90;;;;;;5095147;28;20090;-70
2021/11/17 15:36:18;;;;;;;10.15;2.33;;;9.00;99.90;;;;;;5095485;28;20040;-70
2021/11/17 15:38:46;;;;;;;13.55;4.55;;;8.90;99.90;;;;;;5095026;28;20032;-70
2021/11/17 15:41:15;;;;;;;11.15;3.20;;;8.80;99.90;;;;;;5095117;28;20496;-70